This demonstration page uses our WeatherBlox Daily Observations layout. Learn more.

36.17497, -115.13722

Hourly Observations for October 13, 2018

Temp ( °F °C ) Dew Point ( °F °C ) Humidity (%) Winds ( mph kmh ) Pressure ( in mb ) Visibility ( mi km ) Precip ( " mm )
12:53 am 00:53 Partly Cloudy 64 17.8 38 3.3 38 38 NNW 6 9 29.83 1010 10 16.09344 0 0
1:53 am 01:53 Mostly Clear 64 17.8 37 2.8 37 37 NNW 5 7 29.83 1010 10 16.09344 0 0
2:53 am 02:53 Clear 64 17.8 37 2.8 37 37 NNW 7 11 29.83 1010 10 16.09344 0 0
3:53 am 03:53 Clear 65 18.3 37 2.8 36 36 Calm 29.83 1010 10 16.09344 0 0
4:53 am 04:53 Clear 65 18.3 36 2.2 34 34 N 8 13 29.8 1009 10 16.09344 0 0
5:53 am 05:53 Clear 63 17.2 36 2.2 37 37 NNW 6 9 29.83 1010 10 16.09344 0 0
6:53 am 06:53 Sunny 62 16.7 35 1.7 37 37 WNW 5 7 29.83 1010 10 16.09344 0 0
7:53 am 07:53 Sunny 65 18.3 35 1.7 33 33 NW 10 17 29.85 1011 10 16.09344 0 0
8:53 am 08:53 Sunny 67 19.4 35 1.7 31 31 N 8 13 29.85 1011 10 16.09344 0 0
9:53 am 09:53 Sunny 73 22.8 35 1.7 25 25 Calm 29.85 1011 10 16.09344 0 0
10:53 am 10:53 Sunny 72 22.2 36 2.2 27 27 S 6 9 29.85 1011 10 16.09344 0 0
11:53 am 11:53 Sunny 74 23.3 36 2.2 25 25 SW 6 9 29.83 1010 10 16.09344 0 0
12:53 pm 12:53 Sunny 76 24.4 37 2.8 24 24 ESE 8 13 29.8 1009 10 16.09344 0 0
1:53 pm 13:53 Sunny 76 24.4 40 4.4 27 27 N 3 6 29.8 1009 10 16.09344 0 0
2:53 pm 14:53 Sunny 77 25 40 4.4 26 26 E 3 6 29.77 1008 10 16.09344 0 0
3:53 pm 15:53 Sunny 79 26.1 40 4.4 25 25 N 5 7 29.74 1007 10 16.09344 0 0
4:53 pm 16:53 Sunny 79 26.1 39 3.9 24 24 SSE 6 9 29.74 1007 10 16.09344 0 0
5:53 pm 17:53 Sunny 77 25 40 4.4 26 26 SSE 9 15 29.74 1007 10 16.09344 0 0
6:53 pm 18:53 Clear 75 23.9 46 7.8 36 36 SSE 9 15 29.77 1008 10 16.09344 0 0
7:53 pm 19:53 Clear 73 22.8 47 8.3 40 40 S 5 7 29.77 1008 10 16.09344 0 0
8:53 pm 20:53 Clear 68 20 47 8.3 47 47 ESE 7 11 29.77 1008 10 16.09344 0 0
9:53 pm 21:53 Clear 68 20 48 8.9 49 49 NE 5 7 29.8 1009 10 16.09344 0 0
10:53 pm 22:53 Clear 66 18.9 47 8.3 50 50 E 9 15 29.8 1009 10 16.09344 0 0
11:53 pm 23:53 Clear 65 18.3 48 8.9 54 54 ENE 6 9 29.8 1009 10 16.09344 0 0

Powered by AerisWeather